Time;durP1;ratioP1;P1;durP2;ratioP2;P2;SDS_P1;SDS_P2;PMS_P1;PMS_P2;Temp;Humidity;BMP_temperature;BMP_pressure;BME280_temperature;BME280_humidity;BME280_pressure;Samples;Min_cycle;Max_cycle;Signal;HPM_P1;HPM_P2
2023/10/21 00:00:29;;;;;;;1999.90;999.90;;;10.00;99.90;;;;;;5048688;28;20025;-74
2023/10/21 00:02:55;;;;;;;1999.90;999.90;;;10.00;99.90;;;;;;5052745;28;20044;-74
2023/10/21 00:05:21;;;;;;;1999.90;999.90;;;10.00;99.90;;;;;;5050010;28;20044;-74
2023/10/21 00:07:47;;;;;;;1999.90;999.90;;;10.00;99.90;;;;;;5053591;28;20449;-73
2023/10/21 00:10:13;;;;;;;1999.90;999.90;;;9.80;99.90;;;;;;5050847;28;20044;-74
2023/10/21 00:12:38;;;;;;;1999.90;999.90;;;9.80;99.90;;;;;;5049888;28;20048;-75
2023/10/21 00:15:07;;;;;;;1999.90;999.90;;;9.80;99.90;;;;;;5051518;28;20103;-77
2023/10/21 00:17:34;;;;;;;1999.90;999.90;;;9.80;99.90;;;;;;5055044;28;20031;-75
2023/10/21 00:20:00;;;;;;;1999.90;999.90;;;9.70;99.90;;;;;;5050111;28;20115;-74
2023/10/21 00:22:26;;;;;;;1999.90;999.90;;;9.70;99.90;;;;;;5050716;28;20064;-74
2023/10/21 00:24:52;;;;;;;1999.90;999.90;;;9.70;99.90;;;;;;5050575;28;20041;-75
2023/10/21 00:27:18;;;;;;;1999.90;999.90;;;9.70;99.90;;;;;;5051300;28;20103;-73
2023/10/21 00:29:44;;;;;;;1999.90;999.90;;;9.70;99.90;;;;;;5052615;28;21400;-73
2023/10/21 00:32:10;;;;;;;1999.90;999.90;;;9.70;99.90;;;;;;5048025;28;20511;-73
2023/10/21 00:34:39;;;;;;;1999.90;999.90;;;9.80;99.90;;;;;;5054081;28;20065;-74
2023/10/21 00:37:06;;;;;;;1999.90;999.90;;;9.80;99.90;;;;;;5049217;28;20111;-74
2023/10/21 00:39:35;;;;;;;1999.90;999.90;;;9.80;99.90;;;;;;5050416;28;20086;-73
2023/10/21 00:42:06;;;;;;;1999.90;999.90;;;9.80;99.90;;;;;;5051722;28;20091;-74
2023/10/21 00:44:32;;;;;;;1999.90;999.90;;;9.80;99.90;;;;;;5048432;28;20564;-73
2023/10/21 00:46:59;;;;;;;1999.90;999.90;;;9.70;99.90;;;;;;5048813;28;20487;-74
2023/10/21 00:49:26;;;;;;;1999.90;999.90;;;9.70;99.90;;;;;;5049233;28;20513;-73
2023/10/21 00:51:52;;;;;;;1999.90;999.90;;;9.70;99.90;;;;;;5047970;28;20109;-73
2023/10/21 00:54:18;;;;;;;1999.90;999.90;;;9.70;99.90;;;;;;5050689;28;20074;-73
2023/10/21 00:56:44;;;;;;;1999.90;999.90;;;9.70;99.90;;;;;;5054722;28;20437;-73
2023/10/21 00:59:13;;;;;;;1999.90;999.90;;;9.80;99.90;;;;;;5048169;28;20033;-74
2023/10/21 01:01:39;;;;;;;1999.90;999.90;;;9.80;99.90;;;;;;5048977;28;20173;-74
2023/10/21 01:04:06;;;;;;;1999.90;999.90;;;9.80;99.90;;;;;;5050352;28;20029;-74
2023/10/21 01:06:32;;;;;;;1999.90;999.90;;;9.80;99.90;;;;;;5048506;28;20033;-75
2023/10/21 01:08:59;;;;;;;1999.90;999.90;;;9.80;99.90;;;;;;5046325;28;20120;-74
2023/10/21 01:11:25;;;;;;;1999.90;999.90;;;9.80;99.90;;;;;;5049980;28;20044;-73
2023/10/21 01:13:51;;;;;;;1999.90;999.90;;;9.80;99.90;;;;;;5053991;28;20056;-74
2023/10/21 01:16:17;;;;;;;1999.90;999.90;;;9.80;99.90;;;;;;5047973;28;20033;-74
2023/10/21 01:18:43;;;;;;;1999.90;999.90;;;9.90;99.90;;;;;;5049509;28;20039;-73
2023/10/21 01:21:10;;;;;;;1999.90;999.90;;;9.90;99.90;;;;;;5049539;28;20024;-74
2023/10/21 01:23:36;;;;;;;1999.90;999.90;;;9.80;99.90;;;;;;5049322;28;20032;-73
2023/10/21 01:26:05;;;;;;;1999.90;999.90;;;9.80;99.90;;;;;;5051584;28;20025;-73
2023/10/21 01:28:32;;;;;;;1999.90;999.90;;;9.90;99.90;;;;;;5050599;28;20506;-74
2023/10/21 01:30:58;;;;;;;1999.90;999.90;;;9.90;99.90;;;;;;5044617;28;20025;-74
2023/10/21 01:33:24;;;;;;;1999.90;999.90;;;9.90;99.90;;;;;;5047848;28;20057;-72
2023/10/21 01:35:50;;;;;;;1999.90;999.90;;;9.90;99.90;;;;;;5048338;28;20538;-74
2023/10/21 01:38:16;;;;;;;1999.90;999.90;;;10.00;99.90;;;;;;5048214;28;20045;-73
2023/10/21 01:40:41;;;;;;;1999.90;999.90;;;10.00;99.90;;;;;;5047555;28;20041;-74
2023/10/21 01:43:07;;;;;;;1999.90;999.90;;;10.00;99.90;;;;;;5050753;28;20037;-74
2023/10/21 01:45:37;;;;;;;1999.90;999.90;;;10.00;99.90;;;;;;5049630;28;20056;-74
2023/10/21 01:48:03;;;;;;;1999.90;999.90;;;10.00;99.90;;;;;;5050079;28;20044;-74
2023/10/21 01:50:29;;;;;;;1999.90;999.90;;;10.00;99.90;;;;;;5045765;28;20045;-73
2023/10/21 01:52:55;;;;;;;1999.90;999.90;;;10.00;99.90;;;;;;5044329;28;20591;-73
2023/10/21 01:55:21;;;;;;;1999.90;999.90;;;10.00;99.90;;;;;;5051877;28;20047;-74
2023/10/21 01:57:47;;;;;;;1999.90;999.90;;;10.10;99.90;;;;;;5050945;28;20037;-73
2023/10/21 02:00:18;;;;;;;1999.90;999.90;;;10.10;99.90;;;;;;5044880;28;20652;-73
2023/10/21 02:02:48;;;;;;;1999.90;999.90;;;10.00;99.90;;;;;;5046592;28;20041;-74
2023/10/21 02:05:14;;;;;;;1999.90;999.90;;;10.00;99.90;;;;;;5046019;28;20504;-74
2023/10/21 02:07:40;;;;;;;1999.90;999.90;;;10.00;99.90;;;;;;5046967;28;20203;-74
2023/10/21 02:10:06;;;;;;;1999.90;999.90;;;9.90;99.90;;;;;;5053340;28;20113;-72
2023/10/21 02:12:32;;;;;;;1999.90;999.90;;;9.90;99.90;;;;;;5052695;28;20718;-73
2023/10/21 02:14:57;;;;;;;1999.90;999.90;;;9.90;99.90;;;;;;5059635;28;20025;-73
2023/10/21 02:17:23;;;;;;;1999.90;999.90;;;10.00;99.90;;;;;;5058309;28;20456;-74
2023/10/21 02:19:56;;;;;;;1999.90;999.90;;;10.00;99.90;;;;;;5053948;28;20041;-73
2023/10/21 02:22:22;;;;;;;1999.90;999.90;;;9.90;99.90;;;;;;5051493;28;20372;-74
2023/10/21 02:24:48;;;;;;;1999.90;999.90;;;9.90;99.90;;;;;;5058510;28;20048;-74
2023/10/21 02:27:13;;;;;;;1999.90;999.90;;;9.90;99.90;;;;;;5054272;28;20462;-73
2023/10/21 02:29:39;;;;;;;1999.90;999.90;;;9.90;99.90;;;;;;5053362;28;20028;-73
2023/10/21 02:32:06;;;;;;;1999.90;999.90;;;9.90;99.90;;;;;;5053919;28;20047;-73
2023/10/21 02:34:32;;;;;;;1999.90;999.90;;;9.80;99.90;;;;;;5052293;28;20029;-73
2023/10/21 02:36:57;;;;;;;1999.90;999.90;;;9.80;99.90;;;;;;5052737;28;20406;-74
2023/10/21 02:39:23;;;;;;;1999.90;999.90;;;9.90;99.90;;;;;;5053691;28;20029;-73
2023/10/21 02:41:48;;;;;;;1999.90;999.90;;;9.90;99.90;;;;;;5059176;28;20029;-74
2023/10/21 02:44:14;;;;;;;1999.90;999.90;;;10.10;99.90;;;;;;5052932;28;20406;-74
2023/10/21 02:46:40;;;;;;;1999.90;999.90;;;10.10;99.90;;;;;;5054288;28;20387;-74
2023/10/21 02:49:05;;;;;;;1999.90;999.90;;;10.20;99.90;;;;;;5051983;28;20032;-74
2023/10/21 02:51:31;;;;;;;1999.90;999.90;;;10.20;99.90;;;;;;5056089;28;20117;-73
2023/10/21 02:53:57;;;;;;;1999.90;999.90;;;10.20;99.90;;;;;;5049841;28;20036;-74
2023/10/21 02:56:23;;;;;;;1999.90;999.90;;;10.20;99.90;;;;;;5053126;28;20031;-73
2023/10/21 02:58:49;;;;;;;1999.90;999.90;;;10.20;99.90;;;;;;5051904;28;20458;-73
2023/10/21 03:01:17;;;;;;;1999.90;999.90;;;10.20;99.90;;;;;;5055105;28;20021;-74
2023/10/21 03:03:44;;;;;;;1999.90;999.90;;;10.30;99.90;;;;;;5054890;28;20107;-74
2023/10/21 03:06:12;;;;;;;1999.90;999.90;;;10.20;99.90;;;;;;5053884;28;20064;-73
2023/10/21 03:08:38;;;;;;;1999.90;999.90;;;10.20;99.90;;;;;;5052382;28;20391;-74
2023/10/21 03:11:05;;;;;;;1999.90;999.90;;;10.20;99.90;;;;;;5048949;28;20029;-73
2023/10/21 03:13:35;;;;;;;1999.90;999.90;;;10.20;99.90;;;;;;5055240;28;20033;-74
2023/10/21 03:16:05;;;;;;;1999.90;999.90;;;10.20;99.90;;;;;;5052401;28;20025;-73
2023/10/21 03:18:31;;;;;;;1999.90;999.90;;;10.20;99.90;;;;;;5052662;28;20059;-74
2023/10/21 03:20:57;;;;;;;1999.90;999.90;;;10.10;99.90;;;;;;5046609;28;20025;-73
2023/10/21 03:23:23;;;;;;;1999.90;999.90;;;10.10;99.90;;;;;;5049309;28;20029;-72
2023/10/21 03:25:59;;;;;;;1999.90;999.90;;;10.20;99.90;;;;;;5052302;28;20090;-73
2023/10/21 03:28:26;;;;;;;1999.90;999.90;;;10.10;99.90;;;;;;5050976;28;20037;-73
2023/10/21 03:30:55;;;;;;;1999.90;999.90;;;10.10;99.90;;;;;;5057700;28;20071;-73
2023/10/21 03:33:21;;;;;;;1999.90;999.90;;;10.10;99.90;;;;;;5047908;28;20052;-74
2023/10/21 03:35:54;;;;;;;1999.90;999.90;;;10.10;99.90;;;;;;5053084;28;20080;-73
2023/10/21 03:38:21;;;;;;;1999.90;999.90;;;10.00;99.90;;;;;;5052919;28;20114;-74
2023/10/21 03:41:02;;;;;;;1999.90;999.90;;;10.00;99.90;;;;;;5049904;28;20049;-74
2023/10/21 03:43:28;;;;;;;1999.90;999.90;;;9.90;99.90;;;;;;5050750;28;20087;-73
2023/10/21 03:45:54;;;;;;;1999.90;999.90;;;9.90;99.90;;;;;;5049726;28;20491;-74
2023/10/21 03:48:21;;;;;;;1999.90;999.90;;;9.80;99.90;;;;;;5055824;28;20040;-74
2023/10/21 03:50:47;;;;;;;1999.90;999.90;;;9.90;99.90;;;;;;5050696;28;20491;-74
2023/10/21 03:53:14;;;;;;;1999.90;999.90;;;9.90;99.90;;;;;;5057026;28;20499;-74
2023/10/21 03:55:41;;;;;;;1999.90;999.90;;;9.90;99.90;;;;;;5049747;28;20057;-74
2023/10/21 03:58:07;;;;;;;1999.90;999.90;;;10.00;99.90;;;;;;5052701;28;20078;-74
2023/10/21 04:00:33;;;;;;;1999.90;999.90;;;10.00;99.90;;;;;;5049801;28;20021;-73
2023/10/21 04:02:58;;;;;;;1999.90;999.90;;;10.10;99.90;;;;;;5052556;28;20103;-73
2023/10/21 04:05:24;;;;;;;1999.90;999.90;;;10.20;99.90;;;;;;5055464;28;20041;-74
2023/10/21 04:07:50;;;;;;;1999.90;999.90;;;10.10;99.90;;;;;;5053398;28;20021;-74
2023/10/21 04:10:16;;;;;;;1999.90;999.90;;;10.20;99.90;;;;;;5050839;28;20507;-74
2023/10/21 04:12:42;;;;;;;1999.90;999.90;;;10.10;99.90;;;;;;5056107;28;20122;-73
2023/10/21 04:15:08;;;;;;;1999.90;999.90;;;10.20;99.90;;;;;;5054703;28;20036;-74
2023/10/21 04:17:37;;;;;;;1999.90;999.90;;;10.30;99.90;;;;;;5050730;28;20060;-73
2023/10/21 04:20:03;;;;;;;1999.90;999.90;;;10.30;99.90;;;;;;5051227;28;20039;-75
2023/10/21 04:22:30;;;;;;;1999.90;999.90;;;10.30;99.90;;;;;;5046387;28;20060;-73
2023/10/21 04:24:55;;;;;;;1999.90;999.90;;;10.40;99.90;;;;;;5052044;28;20483;-73
2023/10/21 04:27:21;;;;;;;1999.90;999.90;;;10.40;99.90;;;;;;5046354;28;20060;-74
2023/10/21 04:29:47;;;;;;;1999.90;999.90;;;10.40;99.90;;;;;;5052512;28;20029;-73
2023/10/21 04:32:12;;;;;;;1999.90;999.90;;;10.40;99.90;;;;;;5047840;28;20037;-74
2023/10/21 04:34:38;;;;;;;1999.90;999.90;;;10.40;99.90;;;;;;5050284;28;20033;-74
2023/10/21 04:37:04;;;;;;;1999.90;999.90;;;10.40;99.90;;;;;;5055112;28;20028;-72
2023/10/21 04:39:30;;;;;;;1999.90;999.90;;;10.50;99.90;;;;;;5052555;28;20036;-74
2023/10/21 04:41:56;;;;;;;1999.90;999.90;;;10.50;99.90;;;;;;5056872;28;20034;-73
2023/10/21 04:44:21;;;;;;;1999.90;999.90;;;10.60;99.90;;;;;;5047327;28;20037;-75
2023/10/21 04:46:47;;;;;;;1999.90;999.90;;;10.50;99.90;;;;;;5049942;28;20025;-74
2023/10/21 04:49:13;;;;;;;1999.90;999.90;;;10.50;99.90;;;;;;5053716;28;20105;-73
2023/10/21 04:51:42;;;;;;;1999.90;999.90;;;10.50;99.90;;;;;;5049674;28;20033;-73
2023/10/21 04:54:08;;;;;;;1999.90;999.90;;;10.50;99.90;;;;;;5048632;28;20044;-73
2023/10/21 04:56:34;;;;;;;1999.90;999.90;;;10.60;99.90;;;;;;5044200;28;20043;-74
2023/10/21 04:59:00;;;;;;;1999.90;999.90;;;10.50;99.90;;;;;;5042881;28;20024;-73
2023/10/21 05:01:26;;;;;;;1999.90;999.90;;;10.50;99.90;;;;;;5055772;28;20536;-76
2023/10/21 05:03:51;;;;;;;1999.90;999.90;;;10.40;99.90;;;;;;5054702;28;20036;-74
2023/10/21 05:06:17;;;;;;;1999.90;999.90;;;10.50;99.90;;;;;;5045955;28;20466;-74
2023/10/21 05:08:43;;;;;;;1999.90;999.90;;;10.50;99.90;;;;;;5050855;28;20387;-73
2023/10/21 05:11:09;;;;;;;1999.90;999.90;;;10.50;99.90;;;;;;5055370;28;20035;-74
2023/10/21 05:13:34;;;;;;;1999.90;999.90;;;10.50;99.90;;;;;;5050247;28;20100;-74
2023/10/21 05:16:00;;;;;;;1999.90;999.90;;;10.50;99.90;;;;;;5041516;28;20046;-75
2023/10/21 05:18:26;;;;;;;1999.90;999.90;;;10.50;99.90;;;;;;5046152;28;20063;-73
2023/10/21 05:20:52;;;;;;;1999.90;999.90;;;10.50;99.90;;;;;;5051635;28;20044;-73
2023/10/21 05:23:18;;;;;;;1999.90;999.90;;;10.50;99.90;;;;;;5056076;28;20834;-73
2023/10/21 05:25:44;;;;;;;1999.90;999.90;;;10.50;99.90;;;;;;5047729;28;20033;-73
2023/10/21 05:28:10;;;;;;;1999.90;999.90;;;10.50;99.90;;;;;;5052276;28;20057;-74
2023/10/21 05:30:36;;;;;;;1999.90;999.90;;;10.60;99.90;;;;;;5052431;28;20021;-73
2023/10/21 05:33:02;;;;;;;1999.90;999.90;;;10.60;99.90;;;;;;5050986;28;20492;-73
2023/10/21 05:35:28;;;;;;;1999.90;999.90;;;10.60;99.90;;;;;;5047311;28;20146;-73
2023/10/21 05:37:54;;;;;;;1999.90;999.90;;;10.60;99.90;;;;;;5051781;28;20678;-72
2023/10/21 05:40:20;;;;;;;1999.90;999.90;;;10.70;99.90;;;;;;5048992;28;20373;-74
2023/10/21 05:42:45;;;;;;;1999.90;999.90;;;10.70;99.90;;;;;;5054012;28;20116;-74
2023/10/21 05:45:11;;;;;;;1999.90;999.90;;;10.70;99.90;;;;;;5053103;28;20518;-73
2023/10/21 05:47:37;;;;;;;1999.90;999.90;;;10.70;99.90;;;;;;5051371;28;20039;-73
2023/10/21 05:50:03;;;;;;;1999.90;999.90;;;10.70;99.90;;;;;;5052065;28;20048;-73
2023/10/21 05:52:29;;;;;;;1999.90;999.90;;;10.70;99.90;;;;;;5055070;28;20490;-74
2023/10/21 05:54:55;;;;;;;1999.90;999.90;;;10.70;99.90;;;;;;5046409;28;20056;-75
2023/10/21 05:57:21;;;;;;;1999.90;999.90;;;10.70;99.90;;;;;;5051524;28;20036;-73
2023/10/21 05:59:47;;;;;;;1999.90;999.90;;;10.60;99.90;;;;;;5053259;28;20041;-73
2023/10/21 06:02:13;;;;;;;1999.90;999.90;;;10.60;99.90;;;;;;5053392;28;20086;-73
2023/10/21 06:04:39;;;;;;;1999.90;999.90;;;10.60;99.90;;;;;;5054461;28;20031;-73
2023/10/21 06:07:05;;;;;;;1999.90;999.90;;;10.60;99.90;;;;;;5049406;28;20386;-73
2023/10/21 06:09:31;;;;;;;1999.90;999.90;;;10.60;99.90;;;;;;5046136;28;20025;-74
2023/10/21 06:11:57;;;;;;;1999.90;999.90;;;10.70;99.90;;;;;;5052100;28;20043;-77
2023/10/21 06:14:22;;;;;;;1999.90;999.90;;;10.70;99.90;;;;;;5050806;28;20064;-75
2023/10/21 06:16:48;;;;;;;1999.90;999.90;;;10.60;99.90;;;;;;5054754;28;20044;-74
2023/10/21 06:19:16;;;;;;;1999.90;999.90;;;10.80;99.90;;;;;;5047365;28;20033;-75
2023/10/21 06:21:41;;;;;;;1999.90;999.90;;;10.70;99.90;;;;;;5048867;28;20189;-74
2023/10/21 06:24:08;;;;;;;1999.90;999.90;;;10.90;99.90;;;;;;5053093;28;20129;-74
2023/10/21 06:26:33;;;;;;;1999.90;999.90;;;10.90;99.90;;;;;;5053361;28;20029;-75
2023/10/21 06:29:00;;;;;;;1999.90;999.90;;;11.00;99.90;;;;;;5052969;28;20141;-74
2023/10/21 06:31:26;;;;;;;1999.90;999.90;;;11.00;99.90;;;;;;5047023;28;20125;-74
2023/10/21 06:33:53;;;;;;;1999.90;999.90;;;10.90;99.90;;;;;;5055855;28;20049;-74
2023/10/21 06:36:19;;;;;;;1999.90;999.90;;;10.90;99.90;;;;;;5054256;28;20030;-74
2023/10/21 06:38:46;;;;;;;1999.90;999.90;;;11.00;99.90;;;;;;5055769;28;20077;-79
2023/10/21 06:41:11;;;;;;;1999.90;999.90;;;11.10;99.90;;;;;;5052121;28;20035;-75
2023/10/21 06:43:37;;;;;;;1999.90;999.90;;;11.30;99.90;;;;;;5048129;28;20025;-74
2023/10/21 06:46:03;;;;;;;1999.90;999.90;;;11.30;99.90;;;;;;5050885;28;20032;-75
2023/10/21 06:48:29;;;;;;;1999.90;999.90;;;11.30;99.90;;;;;;5056931;28;20119;-75
2023/10/21 06:50:56;;;;;;;1999.90;999.90;;;11.30;99.90;;;;;;5051510;28;20116;-76
2023/10/21 06:53:26;;;;;;;1999.90;999.90;;;11.30;99.90;;;;;;5050943;28;20033;-73
2023/10/21 06:55:53;;;;;;;1999.90;999.90;;;11.40;99.90;;;;;;5049186;28;20037;-75
2023/10/21 06:58:19;;;;;;;1999.90;999.90;;;11.40;99.90;;;;;;5050363;28;20037;-76
2023/10/21 07:00:46;;;;;;;1999.90;999.90;;;11.30;99.90;;;;;;5055870;28;20042;-75
2023/10/21 07:03:12;;;;;;;1999.90;999.90;;;11.50;99.90;;;;;;5055227;28;20036;-75
2023/10/21 07:05:38;;;;;;;1999.90;999.90;;;11.50;99.90;;;;;;5050743;28;20033;-75
2023/10/21 07:08:05;;;;;;;1999.90;999.90;;;11.50;99.90;;;;;;5051551;28;20025;-75
2023/10/21 07:10:31;;;;;;;1999.90;999.90;;;11.60;99.90;;;;;;5053055;28;20064;-74
2023/10/21 07:12:59;;;;;;;1999.90;999.90;;;11.70;99.90;;;;;;5054352;28;20062;-76
2023/10/21 07:15:27;;;;;;;1999.90;999.90;;;11.70;99.90;;;;;;5051018;28;20529;-75
2023/10/21 07:17:54;;;;;;;1999.90;999.90;;;11.80;99.90;;;;;;5051201;28;20052;-74
2023/10/21 07:20:19;;;;;;;1999.90;999.90;;;11.80;99.90;;;;;;5048579;28;20037;-75
2023/10/21 07:22:45;;;;;;;1999.90;999.90;;;11.90;99.90;;;;;;5050116;28;20159;-75
2023/10/21 07:25:11;;;;;;;1999.90;999.90;;;11.90;99.90;;;;;;5045785;28;20033;-77
2023/10/21 07:27:37;;;;;;;1999.90;999.90;;;12.00;99.90;;;;;;5054062;28;20060;-76
2023/10/21 07:30:06;;;;;;;1999.90;999.90;;;12.00;99.90;;;;;;5051463;28;20563;-76
2023/10/21 07:32:32;;;;;;;1999.90;999.90;;;11.90;99.90;;;;;;5049148;28;20061;-74
2023/10/21 07:34:58;;;;;;;1999.90;999.90;;;11.90;99.90;;;;;;5045909;28;20036;-75
2023/10/21 07:37:23;;;;;;;1999.90;999.90;;;11.90;99.90;;;;;;5050501;28;20029;-77
2023/10/21 07:39:49;;;;;;;1999.90;999.90;;;11.80;99.90;;;;;;5049365;28;20025;-74
2023/10/21 07:42:15;;;;;;;1999.90;999.90;;;11.90;99.90;;;;;;5052019;28;20036;-75
2023/10/21 07:44:41;;;;;;;1999.90;999.90;;;11.70;99.90;;;;;;5047807;28;20052;-74
2023/10/21 07:47:08;;;;;;;1999.90;999.90;;;11.70;99.90;;;;;;5047870;28;20037;-75
2023/10/21 07:49:33;;;;;;;1999.90;999.90;;;12.00;99.90;;;;;;5048914;28;20029;-75
2023/10/21 07:52:00;;;;;;;1999.90;999.90;;;12.20;99.90;;;;;;5060160;28;20029;-75
2023/10/21 07:54:26;;;;;;;1999.90;999.90;;;12.30;99.90;;;;;;5057388;28;20115;-75
2023/10/21 07:56:53;;;;;;;1999.90;999.90;;;12.50;99.90;;;;;;5049673;28;20036;-76
2023/10/21 07:59:19;;;;;;;1999.90;999.90;;;12.40;99.90;;;;;;5045482;28;20415;-75
2023/10/21 08:01:45;;;;;;;1999.90;999.90;;;12.50;99.90;;;;;;5053350;28;20407;-74
2023/10/21 08:04:11;;;;;;;1999.90;999.90;;;12.40;99.90;;;;;;5050073;28;20052;-76
2023/10/21 08:06:38;;;;;;;1999.90;999.90;;;12.50;99.90;;;;;;5046560;28;20037;-75
2023/10/21 08:09:04;;;;;;;1999.90;999.90;;;12.50;99.20;;;;;;5052420;28;20037;-75
2023/10/21 08:11:31;;;;;;;1999.90;999.90;;;12.60;99.90;;;;;;5083348;28;20028;-74
2023/10/21 08:13:56;;;;;;;1999.90;999.90;;;12.50;99.10;;;;;;5050982;28;20037;-76
2023/10/21 08:16:22;;;;;;;1999.90;999.90;;;12.40;98.60;;;;;;5051559;28;20078;-75
2023/10/21 08:18:50;;;;;;;1999.90;999.90;;;12.60;98.50;;;;;;5048703;28;20033;-75
2023/10/21 08:21:16;;;;;;;1999.90;999.90;;;12.50;98.80;;;;;;5053039;28;20025;-75
2023/10/21 08:23:41;;;;;;;1999.90;999.90;;;12.50;98.80;;;;;;5052499;28;20033;-77
2023/10/21 08:26:07;;;;;;;1999.90;999.90;;;12.60;98.00;;;;;;5053988;28;20040;-74
2023/10/21 08:28:33;;;;;;;1999.90;999.90;;;12.60;97.80;;;;;;5048256;28;20177;-73
2023/10/21 08:30:58;;;;;;;1999.90;999.90;;;12.60;97.20;;;;;;5047257;28;20032;-75
2023/10/21 08:33:24;;;;;;;1999.90;999.90;;;12.50;96.90;;;;;;5051148;28;20274;-74
2023/10/21 08:35:50;;;;;;;1999.90;999.90;;;12.60;97.90;;;;;;5049574;28;20032;-73
2023/10/21 08:38:16;;;;;;;1999.90;999.90;;;12.60;97.30;;;;;;5049894;28;20395;-74
2023/10/21 08:40:46;;;;;;;1999.90;999.90;;;12.60;97.30;;;;;;5052019;28;20059;-74
2023/10/21 08:43:15;;;;;;;1999.90;999.90;;;12.60;97.40;;;;;;5050372;28;20122;-74
2023/10/21 08:45:42;;;;;;;1999.90;999.90;;;12.60;96.50;;;;;;5052432;28;20182;-74
2023/10/21 08:48:11;;;;;;;1999.90;999.90;;;12.70;96.70;;;;;;5050030;28;20025;-74
2023/10/21 08:50:39;;;;;;;1999.90;999.90;;;12.70;96.40;;;;;;5053131;28;20629;-76
2023/10/21 08:53:11;;;;;;;1999.90;999.90;;;12.80;95.90;;;;;;5049365;28;20036;-81
2023/10/21 08:55:38;;;;;;;1999.90;999.90;;;12.80;95.60;;;;;;5056937;28;20056;-80
2023/10/21 08:58:06;;;;;;;1999.90;999.90;;;13.00;96.30;;;;;;5058704;28;20479;-76
2023/10/21 09:00:33;;;;;;;1999.90;999.90;;;13.10;95.90;;;;;;5050799;28;20037;-79
2023/10/21 09:02:59;;;;;;;1999.90;999.90;;;13.00;95.80;;;;;;5051167;28;20021;-78
2023/10/21 09:05:24;;;;;;;1999.90;999.90;;;12.90;95.60;;;;;;5050714;28;20036;-79
2023/10/21 09:07:50;;;;;;;1999.90;999.90;;;13.00;95.90;;;;;;5048812;28;20039;-80
2023/10/21 09:10:17;;;;;;;1999.90;999.90;;;13.20;95.60;;;;;;5051735;28;20022;-80
2023/10/21 09:12:43;;;;;;;1999.90;999.90;;;13.40;95.70;;;;;;5051827;28;20108;-78
2023/10/21 09:15:09;;;;;;;1999.90;999.90;;;13.60;94.90;;;;;;5048537;28;20775;-79
2023/10/21 09:17:35;;;;;;;1999.90;999.90;;;13.70;94.30;;;;;;5053516;28;20048;-80
2023/10/21 09:20:13;;;;;;;1999.90;999.90;;;13.60;94.00;;;;;;5057851;28;20685;-76
2023/10/21 09:22:41;;;;;;;1999.90;999.90;;;14.00;94.30;;;;;;5063009;28;20051;-80
2023/10/21 09:25:15;;;;;;;1999.90;999.90;;;13.90;93.80;;;;;;5058830;28;20040;-79
2023/10/21 09:27:53;;;;;;;1999.90;999.90;;;13.90;93.60;;;;;;5053693;28;20056;-85
2023/10/21 09:30:20;;;;;;;1999.90;999.90;;;14.10;93.30;;;;;;5051687;28;20021;-80
2023/10/21 09:32:47;;;;;;;1999.90;999.90;;;14.10;92.90;;;;;;5052683;28;20175;-80
2023/10/21 09:35:30;;;;;;;1999.90;999.90;;;14.30;93.30;;;;;;5052697;28;20032;-78
2023/10/21 09:37:57;;;;;;;1999.90;999.90;;;14.00;93.20;;;;;;5047087;28;20036;-81
2023/10/21 09:40:24;;;;;;;1999.90;999.90;;;14.30;93.10;;;;;;5051013;28;20120;-80
2023/10/21 09:42:52;;;;;;;1999.90;999.90;;;14.60;92.30;;;;;;5053619;28;20029;-79
2023/10/21 09:45:18;;;;;;;1999.90;999.90;;;14.30;91.70;;;;;;5048329;28;20073;-85
2023/10/21 09:47:47;;;;;;;1999.90;999.90;;;14.20;92.20;;;;;;5051644;28;20037;-79
2023/10/21 09:50:14;;;;;;;1999.90;999.90;;;14.20;92.00;;;;;;5047874;28;20353;-79
2023/10/21 09:52:44;;;;;;;1999.90;999.90;;;14.20;91.90;;;;;;5050096;28;20025;-80
2023/10/21 09:55:11;;;;;;;1999.90;999.90;;;14.40;92.00;;;;;;5051932;28;20571;-79
2023/10/21 09:57:37;;;;;;;1999.90;999.90;;;14.50;91.80;;;;;;5058101;28;20040;-80
2023/10/21 10:00:07;;;;;;;1999.90;999.90;;;14.60;91.90;;;;;;5053717;28;20132;-79
2023/10/21 10:02:36;;;;;;;1999.90;999.90;;;14.40;90.60;;;;;;5056442;28;20098;-80
2023/10/21 10:05:08;;;;;;;1999.90;999.90;;;14.40;91.00;;;;;;5049122;28;20120;-80
2023/10/21 10:07:36;;;;;;;1999.90;999.90;;;14.40;91.30;;;;;;5050117;28;20021;-80
2023/10/21 10:10:05;;;;;;;1999.90;999.90;;;14.20;90.90;;;;;;5057823;28;20407;-79
2023/10/21 10:12:54;;;;;;;1999.90;999.90;;;14.10;91.50;;;;;;5054675;28;20111;-81
2023/10/21 10:15:31;;;;;;;1999.90;999.90;;;14.00;91.40;;;;;;5052476;28;20074;-79
2023/10/21 10:17:57;;;;;;;1999.90;999.90;;;13.90;92.00;;;;;;5053700;28;20041;-80
2023/10/21 10:20:26;;;;;;;1999.90;999.90;;;13.90;92.10;;;;;;5053620;28;20047;-79
2023/10/21 10:23:12;;;;;;;1999.90;999.90;;;14.10;92.10;;;;;;5051892;28;20093;-79
2023/10/21 10:25:39;;;;;;;1999.90;999.90;;;14.10;91.10;;;;;;5049688;28;20120;-80
2023/10/21 10:28:10;;;;;;;1999.90;999.90;;;14.30;91.50;;;;;;5052501;28;20037;-79
2023/10/21 10:30:43;;;;;;;1999.90;999.90;;;14.30;91.60;;;;;;5052596;28;20033;-80
2023/10/21 10:33:15;;;;;;;1999.90;999.90;;;14.50;90.40;;;;;;5048107;28;20507;-81
2023/10/21 10:35:47;;;;;;;1999.90;999.90;;;14.60;90.00;;;;;;5051124;28;20043;-78
2023/10/21 10:38:17;;;;;;;1999.90;999.90;;;14.50;88.60;;;;;;5053235;28;20700;-78
2023/10/21 10:40:44;;;;;;;1999.90;999.90;;;14.40;88.60;;;;;;5052075;28;20530;-78
2023/10/21 10:43:10;;;;;;;1999.90;999.90;;;14.60;88.30;;;;;;5049510;28;20318;-83
2023/10/21 10:45:39;;;;;;;1999.90;999.90;;;14.60;86.80;;;;;;5052338;28;20033;-80
2023/10/21 10:48:07;;;;;;;1999.90;999.90;;;14.70;87.40;;;;;;5048366;28;20033;-80
2023/10/21 10:50:37;;;;;;;1999.90;999.90;;;14.70;85.60;;;;;;5054698;28;20087;-79
2023/10/21 10:53:22;;;;;;;1999.90;999.90;;;14.80;87.20;;;;;;5051336;28;20055;-79
2023/10/21 10:55:49;;;;;;;1999.90;999.90;;;14.80;85.20;;;;;;5052314;28;20036;-80
2023/10/21 10:58:18;;;;;;;1999.90;999.90;;;14.80;83.10;;;;;;5056960;28;20511;-78
2023/10/21 11:00:45;;;;;;;1999.90;999.90;;;14.90;83.20;;;;;;5050145;28;20660;-79
2023/10/21 11:03:21;;;;;;;1999.90;999.90;;;14.90;83.50;;;;;;5044704;28;20021;-81
2023/10/21 11:05:48;;;;;;;1999.90;999.90;;;14.80;81.60;;;;;;5049999;28;20504;-81
2023/10/21 11:08:15;;;;;;;1999.90;999.90;;;15.00;82.20;;;;;;5052596;28;20037;-78
2023/10/21 11:10:41;;;;;;;1999.90;999.90;;;14.90;80.40;;;;;;5050930;28;20075;-79
2023/10/21 11:13:07;;;;;;;1999.90;999.90;;;15.30;83.40;;;;;;5052613;28;20108;-78
2023/10/21 11:15:51;;;;;;;1999.90;999.90;;;15.50;79.10;;;;;;5048507;28;20047;-78
2023/10/21 11:18:18;;;;;;;1999.90;999.90;;;16.10;79.30;;;;;;5044924;28;20036;-81
2023/10/21 11:20:51;;;;;;;1999.90;999.90;;;15.70;80.20;;;;;;5054832;28;20403;-78
2023/10/21 11:23:23;;;;;;;1999.90;999.90;;;15.90;79.20;;;;;;5057047;28;20047;-80
2023/10/21 11:25:53;;;;;;;1999.90;999.90;;;16.00;80.60;;;;;;5061963;28;20053;-80
2023/10/21 11:28:19;;;;;;;1999.90;999.90;;;16.00;79.40;;;;;;5045678;28;20029;-79
2023/10/21 11:30:47;;;;;;;1999.90;999.90;;;15.90;77.60;;;;;;5053647;28;20278;-80
2023/10/21 11:33:13;;;;;;;1999.90;999.90;;;15.80;75.00;;;;;;5053736;28;20099;-78
2023/10/21 11:35:46;;;;;;;1999.90;999.90;;;15.40;74.70;;;;;;5051936;28;20109;-78
2023/10/21 11:38:19;;;;;;;1999.90;999.90;;;15.40;75.10;;;;;;5045449;28;20032;-81
2023/10/21 11:40:47;;;;;;;1999.90;999.90;;;15.10;73.10;;;;;;5046420;28;20522;-78
2023/10/21 11:43:16;;;;;;;1999.90;999.90;;;15.10;74.70;;;;;;5054538;28;20052;-80
2023/10/21 11:45:42;;;;;;;1999.90;999.90;;;14.90;73.10;;;;;;5051651;28;20120;-81
2023/10/21 11:48:11;;;;;;;1999.90;999.90;;;14.50;73.30;;;;;;5046770;28;20036;-81
2023/10/21 11:50:42;;;;;;;1999.90;999.90;;;14.40;74.20;;;;;;5048765;28;20060;-79
2023/10/21 11:53:08;;;;;;;1999.90;999.90;;;14.30;75.00;;;;;;5048953;28;20061;-79
2023/10/21 12:04:23;;;;;;;1999.90;999.90;;;13.60;80.20;;;;;;5051177;28;20047;-79
2023/10/21 12:38:40;;;;;;;1999.90;999.90;;;11.80;99.90;;;;;;5047216;28;20028;-90
2023/10/21 12:41:16;;;;;;;1999.90;999.90;;;11.90;99.90;;;;;;5044556;28;20046;-90